createdAt,value
2023-12-05T00:00:59.310Z,18.08
2023-12-05T00:06:02.552Z,24.03
2023-12-05T00:11:09.238Z,24.70
2023-12-05T00:16:12.524Z,15.03
2023-12-05T00:21:15.687Z,21.40
2023-12-05T00:26:18.968Z,18.48
2023-12-05T00:31:22.274Z,25.57
2023-12-05T00:36:25.524Z,18.92
2023-12-05T00:41:28.669Z,23.13
2023-12-05T00:46:31.845Z,11.52
2023-12-05T00:51:34.937Z,19.90
2023-12-05T00:56:38.344Z,21.17
2023-12-05T01:01:41.559Z,17.08
2023-12-05T01:06:45.127Z,19.03
2023-12-05T01:11:48.264Z,16.63
2023-12-05T01:16:51.715Z,22.70
2023-12-05T01:21:54.845Z,32.30
2023-12-05T01:26:58.106Z,18.25
2023-12-05T01:32:01.314Z,24.37
2023-12-05T01:37:04.444Z,25.90
2023-12-05T01:42:08.027Z,14.55
2023-12-05T01:47:11.869Z,14.73
2023-12-05T01:52:15.390Z,13.40
2023-12-05T01:57:18.931Z,28.50
2023-12-05T02:02:22.421Z,15.55
2023-12-05T02:07:26.525Z,17.55
2023-12-05T02:12:29.720Z,18.70
2023-12-05T02:17:51.510Z,17.17
2023-12-05T02:23:17.076Z,18.57
2023-12-05T02:28:20.819Z,20.23
2023-12-05T02:33:24.085Z,18.05
2023-12-05T02:38:31.536Z,22.60
2023-12-05T02:43:39.786Z,17.10
2023-12-05T02:48:43.338Z,14.53
2023-12-05T02:53:46.487Z,18.42
2023-12-05T02:58:49.628Z,19.45
2023-12-05T03:03:52.759Z,20.67
2023-12-05T03:08:56.767Z,19.27
2023-12-05T03:14:01.535Z,16.83
2023-12-05T03:19:05.368Z,27.83
2023-12-05T03:24:09.150Z,17.10
2023-12-05T03:29:12.230Z,20.97
2023-12-05T03:34:15.425Z,20.80
2023-12-05T03:39:18.629Z,26.73
2023-12-05T03:44:21.756Z,12.65
2023-12-05T03:49:25.397Z,20.17
2023-12-05T03:54:28.690Z,14.67
2023-12-05T03:59:31.807Z,29.27
2023-12-05T04:04:35.179Z,14.43
2023-12-05T04:09:38.552Z,13.10
2023-12-05T04:14:41.841Z,10.98
2023-12-05T04:19:44.878Z,8.77
2023-12-05T04:24:47.931Z,15.07
2023-12-05T04:29:50.989Z,13.73
2023-12-05T04:34:54.107Z,16.60
2023-12-05T04:39:57.253Z,11.70
2023-12-05T04:45:00.625Z,11.93
2023-12-05T04:50:04.232Z,13.98
2023-12-05T04:55:07.548Z,16.57
2023-12-05T05:00:14.535Z,19.20
2023-12-05T05:05:17.840Z,21.73
2023-12-05T05:10:21.740Z,11.57
2023-12-05T05:15:25.042Z,20.25
2023-12-05T05:20:28.213Z,21.63
2023-12-05T05:25:31.903Z,22.90
2023-12-05T05:30:35.111Z,17.73
2023-12-05T05:35:38.509Z,9.33
2023-12-05T05:40:44.529Z,19.38
2023-12-05T05:45:47.738Z,20.00
2023-12-05T05:50:51.740Z,12.82
2023-12-05T05:55:55.326Z,16.40
2023-12-05T06:00:58.462Z,13.93
2023-12-05T06:06:02.061Z,10.85
2023-12-05T06:11:05.685Z,9.30
2023-12-05T06:16:09.447Z,10.23
2023-12-05T06:21:12.574Z,14.38
2023-12-05T06:26:15.982Z,19.03
2023-12-05T06:31:19.806Z,16.63
2023-12-05T06:36:23.081Z,13.63
2023-12-05T06:41:26.227Z,11.32
2023-12-05T06:46:29.374Z,16.02
2023-12-05T06:51:32.848Z,19.60
2023-12-05T06:56:35.892Z,16.63
2023-12-05T07:01:39.121Z,14.93
2023-12-05T07:06:45.120Z,16.70
2023-12-05T07:11:48.663Z,24.70
2023-12-05T07:16:52.105Z,13.30
2023-12-05T07:21:55.422Z,10.55
2023-12-05T07:26:58.622Z,23.57
2023-12-05T07:32:01.770Z,15.82
2023-12-05T07:37:05.089Z,22.35
2023-12-05T07:42:08.241Z,14.77
2023-12-05T07:47:13.411Z,18.77
2023-12-05T07:52:16.618Z,17.70
2023-12-05T07:57:23.774Z,22.27
2023-12-05T08:02:27.286Z,17.38
2023-12-05T08:07:30.668Z,19.43
2023-12-05T08:12:35.171Z,17.38
2023-12-05T08:17:38.436Z,25.70
2023-12-05T08:22:41.750Z,23.02
2023-12-05T08:27:45.011Z,27.27
2023-12-05T08:32:48.295Z,23.77
2023-12-05T08:37:51.580Z,27.95
2023-12-05T08:42:54.935Z,23.10
2023-12-05T08:47:58.348Z,25.20
2023-12-05T08:53:03.138Z,22.33
2023-12-05T08:58:06.430Z,22.80
2023-12-05T09:03:10.287Z,23.73
2023-12-05T09:08:13.837Z,27.90
2023-12-05T09:13:17.750Z,29.63
2023-12-05T09:18:21.698Z,28.92
2023-12-05T09:23:25.130Z,31.20
2023-12-05T09:28:29.962Z,31.58
2023-12-05T09:33:33.570Z,32.33
2023-12-05T09:38:38.344Z,36.08
2023-12-05T09:43:41.778Z,36.20
2023-12-05T09:48:49.083Z,40.03
2023-12-05T09:53:53.063Z,46.00
2023-12-05T09:58:56.455Z,41.90
2023-12-05T10:04:01.169Z,42.92
2023-12-05T10:09:07.732Z,44.38
2023-12-05T10:14:11.179Z,41.00
2023-12-05T10:19:15.760Z,47.63
2023-12-05T10:24:19.568Z,40.47
2023-12-05T10:29:22.827Z,47.47
2023-12-05T10:34:26.286Z,44.83
2023-12-05T10:39:36.965Z,44.93
2023-12-05T10:44:40.729Z,44.38
2023-12-05T10:49:43.910Z,43.53
2023-12-05T10:54:47.711Z,46.97
2023-12-05T10:59:52.079Z,46.85
2023-12-05T11:04:56.253Z,43.20
2023-12-05T11:09:59.536Z,40.38
2023-12-05T11:15:04.308Z,44.10
2023-12-05T11:20:16.146Z,42.35
2023-12-05T11:25:28.612Z,46.40
2023-12-05T11:30:34.998Z,44.87
2023-12-05T11:35:48.957Z,47.58
2023-12-05T11:41:13.514Z,42.93
2023-12-05T11:46:18.942Z,44.33
2023-12-05T11:51:22.167Z,42.88
2023-12-05T11:56:25.870Z,43.87
2023-12-05T12:01:29.264Z,42.03
2023-12-05T12:06:33.488Z,46.13
2023-12-05T12:11:37.184Z,49.25
2023-12-05T12:16:40.972Z,47.20
2023-12-05T12:21:44.621Z,40.77
2023-12-05T12:26:55.056Z,40.65
2023-12-05T12:32:12.685Z,39.77
2023-12-05T12:37:21.032Z,39.85
2023-12-05T12:42:26.143Z,37.00
2023-12-05T12:47:29.350Z,39.07
2023-12-05T12:52:32.528Z,46.08
2023-12-05T12:57:38.784Z,42.30
2023-12-05T13:02:42.105Z,40.53
2023-12-05T13:07:45.638Z,41.60
2023-12-05T13:12:48.875Z,37.20
2023-12-05T13:18:02.926Z,42.60
2023-12-05T13:23:07.390Z,37.20
2023-12-05T13:28:11.597Z,33.75
2023-12-05T13:33:17.362Z,35.35
2023-12-05T13:38:23.675Z,34.00
2023-12-05T13:43:27.018Z,32.60
2023-12-05T13:48:30.480Z,34.67
2023-12-05T13:53:33.944Z,38.38
2023-12-05T13:58:38.864Z,40.67
2023-12-05T14:03:42.384Z,34.20
2023-12-05T14:08:45.782Z,33.33
2023-12-05T14:13:49.215Z,32.30
2023-12-05T14:18:52.660Z,30.92
2023-12-05T14:23:57.241Z,34.38
2023-12-05T14:29:00.637Z,27.93
2023-12-05T14:34:05.429Z,30.67
2023-12-05T14:39:11.223Z,37.43
2023-12-05T14:44:14.919Z,31.73
2023-12-05T14:49:18.695Z,32.80
2023-12-05T14:54:23.131Z,30.40
2023-12-05T14:59:26.452Z,51.47
2023-12-05T15:04:29.431Z,42.72
2023-12-05T15:09:33.688Z,36.83
2023-12-05T15:14:37.075Z,41.58
2023-12-05T15:19:40.023Z,34.07
2023-12-05T15:25:02.809Z,40.78
2023-12-05T15:30:08.842Z,25.95
2023-12-05T15:35:11.763Z,31.17
2023-12-05T15:40:16.482Z,29.02
2023-12-05T15:45:19.731Z,24.40
2023-12-05T15:50:22.782Z,33.95
2023-12-05T15:55:27.498Z,28.02
2023-12-05T16:00:32.722Z,29.92
2023-12-05T16:05:35.763Z,33.65
2023-12-05T16:10:38.809Z,35.77
2023-12-05T16:15:41.788Z,27.25
2023-12-05T16:20:44.814Z,24.38
2023-12-05T16:25:47.654Z,33.15
2023-12-05T16:30:50.639Z,34.33
2023-12-05T16:35:53.491Z,23.23
2023-12-05T16:40:57.973Z,35.70
2023-12-05T16:46:00.950Z,24.38
2023-12-05T16:51:04.739Z,33.65
2023-12-05T16:56:08.481Z,33.63
2023-12-05T17:01:13.491Z,26.07
2023-12-05T17:06:16.531Z,30.67
2023-12-05T17:11:19.553Z,32.30
2023-12-05T17:16:22.592Z,23.48
2023-12-05T17:21:25.571Z,35.20
2023-12-05T17:26:28.866Z,21.23
2023-12-05T17:31:32.644Z,31.45
2023-12-05T17:36:36.050Z,22.67
2023-12-05T17:41:38.835Z,36.08
2023-12-05T17:46:44.194Z,25.85
2023-12-05T17:51:47.439Z,28.60
2023-12-05T17:56:50.715Z,29.20
2023-12-05T18:01:53.763Z,20.80
2023-12-05T18:07:49.799Z,28.63
2023-12-05T18:12:20.856Z,36.88
2023-12-05T18:17:24.934Z,20.00
2023-12-05T18:22:27.734Z,27.67
2023-12-05T18:27:30.681Z,31.17
2023-12-05T18:32:34.241Z,32.15
2023-12-05T18:37:37.660Z,26.38
2023-12-05T18:42:43.893Z,24.47
2023-12-05T18:47:48.506Z,24.88
2023-12-05T18:52:54.118Z,29.23
2023-12-05T18:57:57.666Z,28.88
2023-12-05T19:03:00.608Z,22.67
2023-12-05T19:08:06.972Z,23.33
2023-12-05T19:13:10.012Z,40.72
2023-12-05T19:18:13.933Z,24.73
2023-12-05T19:23:16.982Z,25.33
2023-12-05T19:28:23.657Z,24.48
2023-12-05T19:33:26.503Z,24.60
2023-12-05T19:38:29.427Z,31.23
2023-12-05T19:43:32.176Z,15.13
2023-12-05T19:48:35.847Z,38.88
2023-12-05T19:53:39.227Z,29.60
2023-12-05T19:58:42.453Z,22.27
2023-12-05T20:03:45.448Z,32.08
2023-12-05T20:08:48.343Z,26.50
2023-12-05T20:13:51.762Z,22.38
2023-12-05T20:18:54.755Z,24.83
2023-12-05T20:23:58.641Z,26.63
2023-12-05T20:29:01.586Z,58.95
2023-12-05T20:34:04.666Z,34.97
2023-12-05T20:39:07.652Z,46.58
2023-12-05T20:44:10.986Z,31.52
2023-12-05T20:49:13.941Z,53.43
2023-12-05T20:54:16.665Z,25.70
2023-12-05T20:59:19.690Z,47.90
2023-12-05T21:04:22.677Z,31.20
2023-12-05T21:09:26.274Z,26.05
2023-12-05T21:14:29.371Z,41.67
2023-12-05T21:19:32.564Z,31.58
2023-12-05T21:24:36.428Z,35.22
2023-12-05T21:29:40.820Z,40.00
2023-12-05T21:34:43.967Z,47.15
2023-12-05T21:39:47.195Z,48.23
2023-12-05T21:44:50.770Z,45.80
2023-12-05T21:49:53.863Z,44.65
2023-12-05T21:54:56.838Z,52.40
2023-12-05T21:59:59.767Z,57.65
2023-12-05T22:05:02.633Z,46.10
2023-12-05T22:10:06.053Z,46.63
2023-12-05T22:15:09.347Z,48.17
2023-12-05T22:20:12.221Z,48.20
2023-12-05T22:25:15.372Z,41.10
2023-12-05T22:30:18.864Z,49.67
2023-12-05T22:35:21.640Z,15.20
2023-12-05T22:40:24.642Z,59.67
2023-12-05T22:45:27.823Z,32.67
2023-12-05T22:50:30.864Z,42.20
2023-12-05T22:55:40.182Z,50.77
2023-12-05T23:00:43.076Z,39.40
2023-12-05T23:05:46.135Z,45.03
2023-12-05T23:10:54.350Z,44.20
2023-12-05T23:15:58.512Z,34.83
2023-12-05T23:21:01.622Z,32.53
2023-12-05T23:26:05.193Z,46.15
2023-12-05T23:31:08.074Z,52.70
2023-12-05T23:36:13.082Z,31.05
2023-12-05T23:41:16.057Z,42.08
2023-12-05T23:46:19.005Z,37.30
2023-12-05T23:51:22.172Z,57.53
2023-12-05T23:56:25.038Z,48.97
